createdAt,value
2022-08-29T00:00:30.455Z,17.68
2022-08-29T00:03:02.277Z,17.69
2022-08-29T00:05:40.027Z,17.68
2022-08-29T00:08:11.794Z,17.68
2022-08-29T00:10:42.757Z,17.68
2022-08-29T00:13:14.192Z,17.69
2022-08-29T00:15:45.499Z,17.69
2022-08-29T00:18:16.904Z,17.68
2022-08-29T00:20:47.622Z,17.68
2022-08-29T00:23:17.429Z,17.67
2022-08-29T00:25:47.153Z,17.67
2022-08-29T00:28:17.309Z,17.67
2022-08-29T00:30:47.410Z,17.68
2022-08-29T00:33:17.445Z,17.67
2022-08-29T00:35:48.391Z,17.66
2022-08-29T00:38:19.903Z,17.66
2022-08-29T00:40:55.460Z,17.62
2022-08-29T00:43:28.994Z,17.61
2022-08-29T00:45:58.644Z,17.61
2022-08-29T00:48:28.702Z,17.58
2022-08-29T00:51:04.466Z,17.59
2022-08-29T00:53:39.853Z,17.58
2022-08-29T00:56:12.863Z,17.57
2022-08-29T00:58:50.507Z,17.54
2022-08-29T01:01:21.311Z,17.56
2022-08-29T01:03:51.625Z,17.57
2022-08-29T01:06:22.520Z,17.57
2022-08-29T01:08:57.596Z,17.56
2022-08-29T01:11:44.719Z,17.57
2022-08-29T01:14:14.565Z,17.57
2022-08-29T01:16:45.003Z,17.54
2022-08-29T01:19:42.619Z,17.54
2022-08-29T01:22:39.991Z,17.54
2022-08-29T01:25:15.196Z,17.55
2022-08-29T01:27:49.234Z,17.56
2022-08-29T01:30:18.925Z,17.57
2022-08-29T01:32:49.094Z,17.56
2022-08-29T01:35:18.809Z,17.55
2022-08-29T01:37:48.967Z,17.58
2022-08-29T01:40:18.836Z,17.55
2022-08-29T01:42:48.577Z,17.57
2022-08-29T01:45:18.278Z,17.54
2022-08-29T01:47:47.990Z,17.57
2022-08-29T01:50:18.606Z,17.57
2022-08-29T01:52:48.326Z,17.58
2022-08-29T01:55:18.080Z,17.57
2022-08-29T01:57:48.835Z,17.58
2022-08-29T02:00:21.282Z,17.59
2022-08-29T02:02:51.158Z,17.58
2022-08-29T02:05:23.750Z,17.57
2022-08-29T02:07:53.666Z,17.58
2022-08-29T02:10:23.510Z,17.58
2022-08-29T02:12:55.357Z,17.59
2022-08-29T02:15:25.266Z,17.59
2022-08-29T02:17:55.075Z,17.60
2022-08-29T02:20:24.807Z,17.61
2022-08-29T02:22:54.466Z,17.60
2022-08-29T02:25:36.541Z,17.60
2022-08-29T02:28:06.780Z,17.57
2022-08-29T02:30:37.251Z,17.59
2022-08-29T02:33:07.513Z,17.58
2022-08-29T02:35:42.774Z,17.59
2022-08-29T02:38:13.506Z,17.58
2022-08-29T02:40:43.844Z,17.58
2022-08-29T02:43:15.578Z,17.58
2022-08-29T02:45:46.189Z,17.59
2022-08-29T02:48:16.788Z,17.56
2022-08-29T02:50:51.642Z,17.57
2022-08-29T02:53:23.036Z,17.57
2022-08-29T02:55:54.070Z,17.56
2022-08-29T02:58:25.689Z,17.57
2022-08-29T03:00:56.811Z,17.57
2022-08-29T03:03:27.319Z,17.57
2022-08-29T03:05:57.901Z,17.57
2022-08-29T03:08:27.894Z,17.56
2022-08-29T03:10:57.707Z,17.57
2022-08-29T03:13:27.418Z,17.59
2022-08-29T03:15:57.170Z,17.59
2022-08-29T03:18:26.922Z,17.58
2022-08-29T03:20:56.574Z,17.58
2022-08-29T03:23:26.279Z,17.59
2022-08-29T03:25:56.210Z,17.59
2022-08-29T03:28:25.930Z,17.59
2022-08-29T03:30:55.727Z,17.61
2022-08-29T03:33:25.630Z,17.60
2022-08-29T03:35:55.518Z,17.60
2022-08-29T03:38:25.672Z,17.58
2022-08-29T03:40:55.678Z,17.59
2022-08-29T03:43:27.988Z,17.60
2022-08-29T03:45:57.734Z,17.59
2022-08-29T03:48:27.733Z,17.58
2022-08-29T03:50:57.426Z,17.58
2022-08-29T03:53:27.134Z,17.59
2022-08-29T03:55:56.893Z,17.59
2022-08-29T03:58:26.800Z,17.60
2022-08-29T04:00:56.603Z,17.60
2022-08-29T04:03:31.514Z,17.59
2022-08-29T04:06:01.986Z,17.61
2022-08-29T04:08:31.735Z,17.60
2022-08-29T04:11:01.477Z,17.63
2022-08-29T04:13:31.159Z,17.63
2022-08-29T04:16:00.866Z,17.62
2022-08-29T04:18:30.801Z,17.63
2022-08-29T04:21:05.476Z,17.64
2022-08-29T04:23:37.037Z,17.64
2022-08-29T04:26:27.163Z,17.65
2022-08-29T04:28:57.085Z,17.67
2022-08-29T04:31:26.825Z,17.66
2022-08-29T04:33:56.799Z,17.67
2022-08-29T04:36:26.547Z,17.68
2022-08-29T04:38:56.271Z,17.69
2022-08-29T04:41:26.005Z,17.71
2022-08-29T04:43:55.933Z,17.72
2022-08-29T04:46:26.190Z,17.73
2022-08-29T04:48:59.514Z,17.74
2022-08-29T04:51:34.560Z,17.72
2022-08-29T04:54:06.732Z,17.73
2022-08-29T04:56:38.310Z,17.74
2022-08-29T04:59:12.856Z,17.73
2022-08-29T05:01:42.672Z,17.74
2022-08-29T05:04:14.591Z,17.74
2022-08-29T05:06:44.609Z,17.75
2022-08-29T05:09:14.322Z,17.72
2022-08-29T05:11:44.085Z,17.75
2022-08-29T05:14:13.952Z,17.75
2022-08-29T05:16:43.966Z,17.74
2022-08-29T05:19:16.017Z,17.75
2022-08-29T05:21:46.358Z,17.75
2022-08-29T05:24:19.219Z,17.75
2022-08-29T05:26:48.925Z,17.77
2022-08-29T05:29:20.448Z,17.76
2022-08-29T05:31:50.346Z,17.76
2022-08-29T05:34:34.268Z,17.77
2022-08-29T05:37:07.390Z,17.77
2022-08-29T05:39:38.479Z,17.76
2022-08-29T05:42:10.073Z,17.77
2022-08-29T05:44:40.619Z,17.78
2022-08-29T05:47:12.843Z,17.78
2022-08-29T05:49:44.963Z,17.77
2022-08-29T05:52:18.062Z,17.77
2022-08-29T05:54:48.200Z,17.76
2022-08-29T05:57:20.699Z,17.76
2022-08-29T05:59:55.558Z,17.73
2022-08-29T06:02:26.549Z,17.72
2022-08-29T06:04:57.267Z,17.69
2022-08-29T06:07:27.012Z,17.66
2022-08-29T06:09:56.845Z,17.65
2022-08-29T06:12:33.743Z,17.63
2022-08-29T06:15:03.485Z,17.59
2022-08-29T06:17:33.217Z,17.58
2022-08-29T06:20:02.917Z,17.54
2022-08-29T06:22:35.117Z,17.52
2022-08-29T06:25:28.353Z,17.47
2022-08-29T06:27:59.382Z,17.45
2022-08-29T06:30:29.121Z,17.43
2022-08-29T06:32:59.723Z,17.42
2022-08-29T06:35:29.763Z,17.41
2022-08-29T06:37:59.658Z,17.38
2022-08-29T06:40:29.363Z,17.36
2022-08-29T06:42:59.138Z,17.36
2022-08-29T06:45:28.922Z,17.36
2022-08-29T06:47:58.774Z,17.36
2022-08-29T06:50:28.547Z,17.34
2022-08-29T06:53:09.290Z,17.36
2022-08-29T06:55:48.006Z,17.36
2022-08-29T06:58:18.084Z,17.37
2022-08-29T07:00:49.818Z,17.38
2022-08-29T07:03:19.749Z,17.37
2022-08-29T07:05:55.258Z,17.36
2022-08-29T07:08:25.006Z,17.37
2022-08-29T07:10:54.966Z,17.38
2022-08-29T07:13:24.691Z,17.39
2022-08-29T07:15:55.187Z,17.41
2022-08-29T07:18:25.016Z,17.44
2022-08-29T07:20:55.233Z,17.47
2022-08-29T07:23:25.498Z,17.52
2022-08-29T07:25:55.381Z,17.54
2022-08-29T07:28:25.111Z,17.54
2022-08-29T07:30:55.582Z,17.48
2022-08-29T07:33:25.403Z,17.52
2022-08-29T07:35:55.397Z,17.53
2022-08-29T07:38:25.386Z,17.50
2022-08-29T07:41:03.406Z,17.53
2022-08-29T07:43:33.647Z,17.58
2022-08-29T07:46:12.158Z,17.61
2022-08-29T07:48:42.538Z,17.61
2022-08-29T07:51:15.365Z,17.64
2022-08-29T07:53:46.785Z,17.68
2022-08-29T07:56:19.830Z,17.72
2022-08-29T07:58:49.635Z,17.74
2022-08-29T08:01:21.124Z,17.79
2022-08-29T08:03:52.143Z,17.86
2022-08-29T08:06:27.287Z,17.89
2022-08-29T08:08:58.081Z,17.95
2022-08-29T08:11:29.617Z,17.97
2022-08-29T08:14:00.415Z,17.99
2022-08-29T08:16:31.362Z,18.05
2022-08-29T08:19:01.495Z,18.06
2022-08-29T08:21:31.230Z,18.08
2022-08-29T08:24:00.907Z,18.11
2022-08-29T08:26:31.231Z,18.12
2022-08-29T08:29:00.870Z,18.11
2022-08-29T08:31:30.779Z,18.05
2022-08-29T08:34:00.635Z,18.13
2022-08-29T08:36:40.226Z,18.17
2022-08-29T08:39:10.634Z,18.17
2022-08-29T08:41:52.503Z,18.24
2022-08-29T08:44:24.999Z,18.29
2022-08-29T08:46:59.510Z,18.25
2022-08-29T08:49:40.167Z,18.28
2022-08-29T08:52:17.587Z,18.29
2022-08-29T08:55:01.915Z,18.36
2022-08-29T08:57:40.065Z,18.33
2022-08-29T09:00:13.197Z,18.38
2022-08-29T09:03:04.785Z,18.47
2022-08-29T09:05:49.189Z,18.53
2022-08-29T09:08:28.226Z,18.58
2022-08-29T09:11:20.399Z,18.59
2022-08-29T09:14:18.362Z,18.65
2022-08-29T09:16:53.928Z,18.69
2022-08-29T09:19:23.987Z,18.76
2022-08-29T09:22:02.426Z,18.81
2022-08-29T09:24:41.857Z,18.85
2022-08-29T09:27:20.914Z,18.97
2022-08-29T09:29:53.488Z,19.03
2022-08-29T09:32:23.245Z,19.03
2022-08-29T09:35:09.476Z,19.18
2022-08-29T09:37:39.879Z,19.18
2022-08-29T09:40:19.041Z,19.27
2022-08-29T09:43:04.278Z,19.28
2022-08-29T09:45:34.040Z,19.35
2022-08-29T09:48:21.567Z,19.41
2022-08-29T09:50:51.335Z,19.52
2022-08-29T09:53:26.733Z,19.58
2022-08-29T09:55:56.799Z,19.60
2022-08-29T09:58:26.421Z,19.69
2022-08-29T10:01:28.745Z,19.74
2022-08-29T10:04:05.942Z,19.80
2022-08-29T10:06:45.111Z,19.87
2022-08-29T10:09:37.370Z,19.92
2022-08-29T10:12:22.322Z,19.89
2022-08-29T10:14:57.459Z,19.95
2022-08-29T10:17:55.877Z,19.88
2022-08-29T10:20:49.957Z,19.97
2022-08-29T10:23:36.428Z,20.13
2022-08-29T10:26:14.518Z,20.18
2022-08-29T10:29:12.524Z,20.31
2022-08-29T10:31:53.766Z,20.34
2022-08-29T10:34:35.245Z,20.41
2022-08-29T10:37:12.380Z,20.38
2022-08-29T10:40:00.539Z,20.26
2022-08-29T10:42:34.539Z,20.40
2022-08-29T10:45:30.835Z,20.57
2022-08-29T10:48:14.427Z,20.73
2022-08-29T10:51:08.944Z,20.82
2022-08-29T10:53:50.214Z,20.91
2022-08-29T10:56:30.418Z,20.97
2022-08-29T10:59:23.394Z,21.13
2022-08-29T11:02:00.274Z,21.28
2022-08-29T11:04:38.999Z,21.43
2022-08-29T11:07:37.743Z,21.61
2022-08-29T11:10:15.367Z,21.70
2022-08-29T11:12:52.951Z,21.77
2022-08-29T11:15:48.368Z,21.94
2022-08-29T11:18:22.539Z,22.05
2022-08-29T11:20:59.022Z,21.96
2022-08-29T11:23:42.779Z,22.21
2022-08-29T11:26:43.638Z,22.36
2022-08-29T11:29:38.558Z,22.33
2022-08-29T11:32:19.561Z,22.49
2022-08-29T11:35:11.409Z,22.64
2022-08-29T11:37:53.106Z,22.81
2022-08-29T11:43:28.439Z,22.64
2022-08-29T11:46:03.056Z,22.72
2022-08-29T11:48:55.819Z,22.64
2022-08-29T11:51:37.836Z,22.71
2022-08-29T11:54:26.402Z,22.57
2022-08-29T11:57:05.054Z,22.54
2022-08-29T11:59:49.824Z,22.50
2022-08-29T12:02:31.951Z,22.43
2022-08-29T12:05:01.539Z,22.45
2022-08-29T12:07:52.486Z,22.54
2022-08-29T12:10:25.029Z,22.77
2022-08-29T12:13:06.763Z,22.74
2022-08-29T12:15:36.342Z,22.91
2022-08-29T12:18:25.930Z,23.13
2022-08-29T12:20:56.998Z,23.32
2022-08-29T12:23:36.419Z,23.36
2022-08-29T12:26:23.826Z,23.35
2022-08-29T12:29:02.406Z,23.63
2022-08-29T12:32:18.180Z,23.77
2022-08-29T12:34:57.326Z,23.63
2022-08-29T12:37:36.786Z,23.86
2022-08-29T12:40:37.061Z,24.06
2022-08-29T12:43:41.537Z,24.16
2022-08-29T12:46:49.299Z,24.28
2022-08-29T12:49:24.442Z,24.35
2022-08-29T12:52:01.208Z,24.45
2022-08-29T12:54:41.539Z,24.29
2022-08-29T12:57:25.386Z,24.46
2022-08-29T12:59:56.903Z,24.56
2022-08-29T13:02:26.552Z,23.99
2022-08-29T13:04:56.470Z,24.04
2022-08-29T13:07:27.582Z,23.97
2022-08-29T13:10:03.651Z,23.99
2022-08-29T13:12:36.775Z,23.80
2022-08-29T13:15:19.886Z,23.77
2022-08-29T13:17:51.907Z,23.88
2022-08-29T13:20:52.842Z,24.17
2022-08-29T13:23:25.687Z,24.12
2022-08-29T13:26:09.203Z,24.14
2022-08-29T13:28:38.885Z,24.24
2022-08-29T13:31:14.764Z,24.32
2022-08-29T13:34:04.470Z,24.71
2022-08-29T13:36:42.443Z,24.86
2022-08-29T13:39:25.302Z,25.03
2022-08-29T13:42:04.510Z,25.33
2022-08-29T13:44:40.179Z,25.36
2022-08-29T13:47:19.255Z,25.52
2022-08-29T13:49:49.423Z,25.33
2022-08-29T13:52:20.796Z,25.46
2022-08-29T13:54:50.699Z,25.68
2022-08-29T13:57:23.994Z,25.81
2022-08-29T13:59:53.919Z,25.84
2022-08-29T14:02:25.216Z,26.06
2022-08-29T14:04:55.211Z,26.05
2022-08-29T14:07:32.531Z,26.33
2022-08-29T14:10:02.285Z,26.50
2022-08-29T14:12:33.756Z,26.63
2022-08-29T14:15:10.062Z,26.49
2022-08-29T14:17:43.107Z,26.60
2022-08-29T14:20:13.983Z,26.59
2022-08-29T14:22:44.100Z,26.99
2022-08-29T14:25:15.376Z,26.91
2022-08-29T14:27:47.496Z,27.20
2022-08-29T14:30:20.829Z,27.21
2022-08-29T14:32:50.601Z,27.36
2022-08-29T14:35:26.731Z,27.31
2022-08-29T14:38:02.073Z,27.18
2022-08-29T14:40:33.582Z,27.37
2022-08-29T14:43:05.308Z,27.51
2022-08-29T14:45:35.826Z,27.69
2022-08-29T14:48:06.544Z,27.75
2022-08-29T14:50:36.909Z,27.80
2022-08-29T14:53:06.730Z,27.83
2022-08-29T14:55:36.479Z,27.74
2022-08-29T14:58:07.075Z,27.67
2022-08-29T15:00:36.841Z,28.01
2022-08-29T15:03:06.951Z,28.11
2022-08-29T15:05:37.190Z,28.06
2022-08-29T15:08:07.088Z,27.94
2022-08-29T15:10:37.246Z,28.21
2022-08-29T15:13:07.500Z,28.39
2022-08-29T15:15:37.551Z,28.51
2022-08-29T15:18:08.301Z,28.57
2022-08-29T15:20:40.149Z,28.54
2022-08-29T15:23:13.195Z,28.62
2022-08-29T15:25:45.094Z,28.71
2022-08-29T15:28:21.804Z,28.53
2022-08-29T15:30:51.653Z,28.51
2022-08-29T15:33:21.406Z,28.64
2022-08-29T15:35:51.515Z,28.80
2022-08-29T15:38:21.566Z,29.19
2022-08-29T15:40:51.312Z,28.78
2022-08-29T15:43:20.981Z,28.86
2022-08-29T15:45:50.796Z,29.22
2022-08-29T15:48:20.582Z,29.14
2022-08-29T15:50:50.980Z,29.32
2022-08-29T15:53:20.744Z,29.08
2022-08-29T15:55:50.529Z,29.79
2022-08-29T15:58:20.419Z,30.06
2022-08-29T16:00:50.158Z,30.00
2022-08-29T16:03:19.844Z,29.71
2022-08-29T16:05:49.734Z,29.31
2022-08-29T16:08:19.826Z,31.00
2022-08-29T16:10:52.295Z,32.54
2022-08-29T16:13:22.058Z,34.94
2022-08-29T16:15:51.911Z,34.69
2022-08-29T16:18:21.667Z,33.63
2022-08-29T16:20:51.530Z,32.76
2022-08-29T16:23:26.791Z,31.05
2022-08-29T16:25:56.743Z,29.92
2022-08-29T16:28:28.904Z,28.88
2022-08-29T16:30:58.727Z,28.11
2022-08-29T16:33:28.552Z,27.39
2022-08-29T16:35:58.507Z,26.90
2022-08-29T16:38:28.716Z,26.51
2022-08-29T16:40:58.592Z,26.21
2022-08-29T16:43:28.243Z,25.87
2022-08-29T16:45:58.131Z,25.56
2022-08-29T16:48:28.233Z,25.28
2022-08-29T16:50:57.934Z,24.98
2022-08-29T16:53:27.621Z,24.60
2022-08-29T16:55:57.362Z,24.31
2022-08-29T16:58:39.738Z,24.11
2022-08-29T17:01:09.867Z,23.83
2022-08-29T17:03:39.620Z,23.62
2022-08-29T17:06:09.518Z,23.43
2022-08-29T17:08:37.490Z,23.25
2022-08-29T17:11:04.619Z,23.05
2022-08-29T17:13:31.991Z,22.88
2022-08-29T17:16:05.874Z,22.73
2022-08-29T17:18:36.670Z,22.55
2022-08-29T17:21:06.706Z,22.33
2022-08-29T17:23:38.588Z,22.22
2022-08-29T17:26:11.894Z,22.15
2022-08-29T17:28:42.842Z,22.03
2022-08-29T17:31:12.687Z,21.92
2022-08-29T17:33:42.998Z,21.80
2022-08-29T17:36:13.915Z,21.65
2022-08-29T17:38:46.727Z,21.52
2022-08-29T17:41:22.044Z,21.41
2022-08-29T17:43:53.008Z,21.27
2022-08-29T17:46:24.007Z,21.16
2022-08-29T17:48:54.212Z,21.04
2022-08-29T17:51:24.317Z,20.93
2022-08-29T17:53:54.945Z,20.84
2022-08-29T17:56:32.796Z,20.73
2022-08-29T17:59:05.517Z,20.64
2022-08-29T18:01:36.987Z,20.48
2022-08-29T18:04:07.003Z,20.34
2022-08-29T18:06:37.251Z,20.30
2022-08-29T18:09:08.362Z,20.24
2022-08-29T18:11:47.135Z,20.13
2022-08-29T18:14:16.961Z,20.00
2022-08-29T18:16:46.989Z,19.96
2022-08-29T18:19:17.453Z,19.90
2022-08-29T18:21:47.867Z,19.79
2022-08-29T18:24:17.695Z,19.68
2022-08-29T18:26:49.666Z,19.61
2022-08-29T18:29:19.580Z,19.57
2022-08-29T18:31:49.392Z,19.53
